createdAt,value
2023-08-14T00:01:27.091Z,18.54
2023-08-14T00:03:54.468Z,18.59
2023-08-14T00:06:20.930Z,18.53
2023-08-14T00:08:47.315Z,18.44
2023-08-14T00:11:13.674Z,18.45
2023-08-14T00:13:54.195Z,18.49
2023-08-14T00:16:21.037Z,18.43
2023-08-14T00:18:47.682Z,18.40
2023-08-14T00:21:14.246Z,18.42
2023-08-14T00:23:40.708Z,18.46
2023-08-14T00:26:07.181Z,18.38
2023-08-14T00:28:33.950Z,18.42
2023-08-14T00:31:00.373Z,18.43
2023-08-14T00:33:26.861Z,18.24
2023-08-14T00:35:53.344Z,18.22
2023-08-14T00:38:19.708Z,18.27
2023-08-14T00:40:46.220Z,18.20
2023-08-14T00:43:14.068Z,18.06
2023-08-14T00:45:46.228Z,18.13
2023-08-14T00:48:15.197Z,18.10
2023-08-14T00:50:43.115Z,18.05
2023-08-14T00:53:11.222Z,18.11
2023-08-14T00:55:37.698Z,18.04
2023-08-14T00:58:04.318Z,18.07
2023-08-14T01:00:31.174Z,18.12
2023-08-14T01:02:57.682Z,18.12
2023-08-14T01:05:24.726Z,18.03
2023-08-14T01:07:51.188Z,18.01
2023-08-14T01:10:17.636Z,18.12
2023-08-14T01:12:57.106Z,18.05
2023-08-14T01:15:39.145Z,18.07
2023-08-14T01:18:06.120Z,18.06
2023-08-14T01:20:35.321Z,18.06
2023-08-14T01:23:15.372Z,18.16
2023-08-14T01:25:42.633Z,18.13
2023-08-14T01:28:09.610Z,18.05
2023-08-14T01:30:36.344Z,18.04
2023-08-14T01:33:02.851Z,18.12
2023-08-14T01:35:39.732Z,18.11
2023-08-14T01:38:17.661Z,18.11
2023-08-14T01:41:19.384Z,18.04
2023-08-14T01:43:49.122Z,18.01
2023-08-14T01:46:16.708Z,17.84
2023-08-14T01:48:46.401Z,17.99
2023-08-14T01:51:14.701Z,17.86
2023-08-14T01:53:41.498Z,17.97
2023-08-14T01:56:07.955Z,17.90
2023-08-14T01:58:34.537Z,17.94
2023-08-14T02:01:01.965Z,17.88
2023-08-14T02:03:28.567Z,17.85
2023-08-14T02:05:55.959Z,17.80
2023-08-14T02:08:22.406Z,17.83
2023-08-14T02:10:48.826Z,17.87
2023-08-14T02:13:15.342Z,17.88
2023-08-14T02:15:45.714Z,17.73
2023-08-14T02:18:12.808Z,17.84
2023-08-14T02:20:49.510Z,17.84
2023-08-14T02:23:16.065Z,17.75
2023-08-14T02:25:42.908Z,17.75
2023-08-14T02:28:09.805Z,17.70
2023-08-14T02:30:38.212Z,17.60
2023-08-14T02:33:06.167Z,17.66
2023-08-14T02:35:32.747Z,17.68
2023-08-14T02:37:59.408Z,17.72
2023-08-14T02:40:26.117Z,17.70
2023-08-14T02:42:52.662Z,17.66
2023-08-14T02:45:19.023Z,17.62
2023-08-14T02:47:45.495Z,17.43
2023-08-14T02:50:11.923Z,17.66
2023-08-14T02:52:38.324Z,17.61
2023-08-14T02:55:05.173Z,17.49
2023-08-14T02:57:31.737Z,17.49
2023-08-14T02:59:58.143Z,17.57
2023-08-14T03:02:24.598Z,17.46
2023-08-14T03:04:51.496Z,17.43
2023-08-14T03:07:17.985Z,17.54
2023-08-14T03:09:44.387Z,17.65
2023-08-14T03:12:10.796Z,17.64
2023-08-14T03:14:37.196Z,17.62
2023-08-14T03:17:03.683Z,17.57
2023-08-14T03:19:30.138Z,17.65
2023-08-14T03:21:56.568Z,17.57
2023-08-14T03:24:22.921Z,17.66
2023-08-14T03:26:49.360Z,17.65
2023-08-14T03:29:17.161Z,17.69
2023-08-14T03:31:43.594Z,17.74
2023-08-14T03:34:10.461Z,17.75
2023-08-14T03:36:37.084Z,17.72
2023-08-14T03:39:03.992Z,17.66
2023-08-14T03:41:30.436Z,17.66
2023-08-14T03:44:00.008Z,17.69
2023-08-14T03:46:26.812Z,17.64
2023-08-14T03:48:53.286Z,17.62
2023-08-14T03:51:19.709Z,17.66
2023-08-14T03:53:46.082Z,17.60
2023-08-14T03:56:12.921Z,17.66
2023-08-14T03:58:39.312Z,17.68
2023-08-14T04:01:05.713Z,17.65
2023-08-14T04:03:32.268Z,17.51
2023-08-14T04:05:58.835Z,17.57
2023-08-14T04:08:25.546Z,17.61
2023-08-14T04:10:58.213Z,17.68
2023-08-14T04:13:25.654Z,17.64
2023-08-14T04:15:52.802Z,17.61
2023-08-14T04:18:19.202Z,17.62
2023-08-14T04:20:45.703Z,17.65
2023-08-14T04:23:12.256Z,17.62
2023-08-14T04:25:38.860Z,17.61
2023-08-14T04:28:07.097Z,17.60
2023-08-14T04:30:33.557Z,17.54
2023-08-14T04:33:00.126Z,17.56
2023-08-14T04:35:28.496Z,17.53
2023-08-14T04:37:55.612Z,17.51
2023-08-14T04:40:22.252Z,17.52
2023-08-14T04:42:48.633Z,17.58
2023-08-14T04:45:15.462Z,17.63
2023-08-14T04:47:41.949Z,17.57
2023-08-14T04:50:10.284Z,17.67
2023-08-14T04:52:36.769Z,17.66
2023-08-14T04:55:05.031Z,17.52
2023-08-14T04:57:34.599Z,17.64
2023-08-14T05:00:05.344Z,17.64
2023-08-14T05:02:33.384Z,17.65
2023-08-14T05:05:00.990Z,17.59
2023-08-14T05:07:28.018Z,17.60
2023-08-14T05:09:54.614Z,17.63
2023-08-14T05:12:21.293Z,17.62
2023-08-14T05:14:48.302Z,17.57
2023-08-14T05:17:14.812Z,17.64
2023-08-14T05:19:41.394Z,17.64
2023-08-14T05:22:07.811Z,17.57
2023-08-14T05:24:34.241Z,17.60
2023-08-14T05:27:00.644Z,17.66
2023-08-14T05:29:27.052Z,17.71
2023-08-14T05:31:53.500Z,17.72
2023-08-14T05:34:28.941Z,17.72
2023-08-14T05:36:55.781Z,17.65
2023-08-14T05:39:22.229Z,17.80
2023-08-14T05:41:50.463Z,17.78
2023-08-14T05:44:17.032Z,17.85
2023-08-14T05:46:45.927Z,17.92
2023-08-14T05:49:13.882Z,17.97
2023-08-14T05:51:40.307Z,17.94
2023-08-14T05:54:06.745Z,17.85
2023-08-14T05:56:33.209Z,17.89
2023-08-14T05:58:59.605Z,17.86
2023-08-14T06:01:26.028Z,17.85
2023-08-14T06:03:52.538Z,17.83
2023-08-14T06:06:18.999Z,17.84
2023-08-14T06:08:45.481Z,17.85
2023-08-14T06:11:11.861Z,17.88
2023-08-14T06:13:38.302Z,17.95
2023-08-14T06:16:04.900Z,17.96
2023-08-14T06:18:31.322Z,17.98
2023-08-14T06:20:57.734Z,18.12
2023-08-14T06:23:24.158Z,18.19
2023-08-14T06:25:50.515Z,18.28
2023-08-14T06:28:16.969Z,18.33
2023-08-14T06:30:43.356Z,18.51
2023-08-14T06:33:09.930Z,18.54
2023-08-14T06:35:36.560Z,18.48
2023-08-14T06:38:03.585Z,18.56
2023-08-14T06:40:30.036Z,18.57
2023-08-14T06:42:56.557Z,18.55
2023-08-14T06:45:23.023Z,18.65
2023-08-14T06:47:49.908Z,18.72
2023-08-14T06:50:16.458Z,18.68
2023-08-14T06:52:42.886Z,18.74
2023-08-14T06:55:09.526Z,18.79
2023-08-14T06:57:35.913Z,18.85
2023-08-14T07:00:13.106Z,18.87
2023-08-14T07:02:40.658Z,18.91
2023-08-14T07:05:10.950Z,18.89
2023-08-14T07:07:37.945Z,18.99
2023-08-14T07:10:04.633Z,19.05
2023-08-14T07:12:31.148Z,19.18
2023-08-14T07:14:57.643Z,19.30
2023-08-14T07:17:24.129Z,19.40
2023-08-14T07:19:50.549Z,19.48
2023-08-14T07:22:17.201Z,19.47
2023-08-14T07:24:44.867Z,19.56
2023-08-14T07:27:11.279Z,19.65
2023-08-14T07:29:37.677Z,19.68
2023-08-14T07:32:04.321Z,19.70
2023-08-14T07:34:30.679Z,19.62
2023-08-14T07:36:57.087Z,19.81
2023-08-14T07:39:24.294Z,19.84
2023-08-14T07:41:50.720Z,19.90
2023-08-14T07:44:17.115Z,19.98
2023-08-14T07:46:43.482Z,19.96
2023-08-14T07:49:09.870Z,20.07
2023-08-14T07:51:36.254Z,20.09
2023-08-14T07:54:03.056Z,20.10
2023-08-14T07:56:29.446Z,20.03
2023-08-14T07:58:55.845Z,20.12
2023-08-14T08:01:22.349Z,20.14
2023-08-14T08:03:48.735Z,20.25
2023-08-14T08:06:15.140Z,20.37
2023-08-14T08:08:43.773Z,20.46
2023-08-14T08:11:12.242Z,20.48
2023-08-14T08:13:38.694Z,20.70
2023-08-14T08:16:05.307Z,20.81
2023-08-14T08:18:31.716Z,20.87
2023-08-14T08:20:58.136Z,20.93
2023-08-14T08:23:24.553Z,21.07
2023-08-14T08:25:51.409Z,21.18
2023-08-14T08:28:17.828Z,21.30
2023-08-14T08:30:44.323Z,21.41
2023-08-14T08:33:10.725Z,21.49
2023-08-14T08:35:37.211Z,21.53
2023-08-14T08:38:03.891Z,21.58
2023-08-14T08:40:31.923Z,21.55
2023-08-14T08:43:01.037Z,21.46
2023-08-14T08:45:32.885Z,21.38
2023-08-14T08:48:02.155Z,21.28
2023-08-14T08:50:32.435Z,21.37
2023-08-14T08:52:59.336Z,21.46
2023-08-14T08:55:26.027Z,21.52
2023-08-14T08:57:55.220Z,21.51
2023-08-14T09:00:25.828Z,21.43
2023-08-14T09:02:52.435Z,21.43
2023-08-14T09:05:19.413Z,21.37
2023-08-14T09:07:47.238Z,21.32
2023-08-14T09:10:15.636Z,21.25
2023-08-14T09:12:42.409Z,21.18
2023-08-14T09:15:10.429Z,21.15
2023-08-14T09:17:36.825Z,21.19
2023-08-14T09:20:12.030Z,21.18
2023-08-14T09:22:45.736Z,21.15
2023-08-14T09:25:12.212Z,21.16
2023-08-14T09:27:38.704Z,21.15
2023-08-14T09:30:07.474Z,21.16
2023-08-14T09:32:34.174Z,21.11
2023-08-14T09:35:02.132Z,21.12
2023-08-14T09:37:29.049Z,21.07
2023-08-14T09:40:16.295Z,21.12
2023-08-14T09:42:52.251Z,21.12
2023-08-14T09:45:24.626Z,21.10
2023-08-14T09:47:52.382Z,21.19
2023-08-14T09:50:21.010Z,21.25
2023-08-14T09:52:47.614Z,21.16
2023-08-14T09:55:15.338Z,21.33
2023-08-14T09:57:42.543Z,21.38
2023-08-14T10:00:09.496Z,21.42
2023-08-14T10:02:38.855Z,21.48
2023-08-14T10:05:10.243Z,21.43
2023-08-14T10:07:39.237Z,21.49
2023-08-14T10:10:08.476Z,21.51
2023-08-14T10:12:44.067Z,21.50
2023-08-14T10:15:14.261Z,21.65
2023-08-14T10:17:46.452Z,21.74
2023-08-14T10:20:18.486Z,21.81
2023-08-14T10:22:47.332Z,21.83
2023-08-14T10:25:15.048Z,22.11
2023-08-14T10:27:41.574Z,22.24
2023-08-14T10:30:08.839Z,22.32
2023-08-14T10:32:37.478Z,22.48
2023-08-14T10:35:04.932Z,22.67
2023-08-14T10:38:00.030Z,22.70
2023-08-14T10:40:35.463Z,22.73
2023-08-14T10:43:02.398Z,22.71
2023-08-14T10:45:29.835Z,22.64
2023-08-14T10:48:01.607Z,22.57
2023-08-14T10:50:30.174Z,22.52
2023-08-14T10:52:57.809Z,22.53
2023-08-14T10:55:24.265Z,22.61
2023-08-14T10:57:50.894Z,22.70
2023-08-14T11:00:25.266Z,22.84
2023-08-14T11:03:12.821Z,23.04
2023-08-14T11:05:40.534Z,23.13
2023-08-14T11:08:12.753Z,23.16
2023-08-14T11:10:40.896Z,23.16
2023-08-14T11:13:07.856Z,23.19
2023-08-14T11:15:35.841Z,23.24
2023-08-14T11:18:03.896Z,23.40
2023-08-14T11:20:31.004Z,23.51
2023-08-14T11:22:57.447Z,23.64
2023-08-14T11:25:25.051Z,23.71
2023-08-14T11:27:53.493Z,23.77
2023-08-14T11:30:26.331Z,23.83
2023-08-14T11:32:54.994Z,23.80
2023-08-14T11:37:52.819Z,23.70
2023-08-14T11:40:19.386Z,23.63
2023-08-14T11:42:45.864Z,23.67
2023-08-14T11:45:12.475Z,23.72
2023-08-14T11:47:48.438Z,23.79
2023-08-14T11:50:16.665Z,23.83
2023-08-14T11:52:43.628Z,23.88
2023-08-14T11:55:10.931Z,23.85
2023-08-14T11:57:38.828Z,23.81
2023-08-14T12:00:21.061Z,23.89
2023-08-14T12:02:52.865Z,23.88
2023-08-14T12:05:20.809Z,23.71
2023-08-14T12:07:47.260Z,23.62
2023-08-14T12:10:17.134Z,23.67
2023-08-14T12:12:51.722Z,23.54
2023-08-14T12:15:24.351Z,23.59
2023-08-14T12:17:54.660Z,23.53
2023-08-14T12:20:22.327Z,23.45
2023-08-14T12:22:55.538Z,23.47
2023-08-14T12:25:29.251Z,23.49
2023-08-14T12:27:55.698Z,23.49
2023-08-14T12:30:22.079Z,23.47
2023-08-14T12:32:48.646Z,23.51
2023-08-14T12:35:15.162Z,23.53
2023-08-14T12:37:41.599Z,23.50
2023-08-14T12:40:09.696Z,23.46
2023-08-14T12:42:37.372Z,23.55
2023-08-14T12:45:05.257Z,23.49
2023-08-14T12:47:32.073Z,23.52
2023-08-14T12:49:58.607Z,23.49
2023-08-14T12:52:25.901Z,23.58
2023-08-14T12:57:23.368Z,23.67
2023-08-14T12:59:51.025Z,23.62
2023-08-14T13:02:24.262Z,23.68
2023-08-14T13:04:53.709Z,23.62
2023-08-14T13:07:22.430Z,23.62
2023-08-14T13:09:48.795Z,23.62
2023-08-14T13:12:15.244Z,23.61
2023-08-14T13:14:41.601Z,23.55
2023-08-14T13:17:08.024Z,23.53
2023-08-14T13:19:34.462Z,23.55
2023-08-14T13:22:00.904Z,23.56
2023-08-14T13:24:27.282Z,23.69
2023-08-14T13:26:53.653Z,23.81
2023-08-14T13:29:20.056Z,23.86
2023-08-14T13:31:47.893Z,23.89
2023-08-14T13:34:14.301Z,23.85
2023-08-14T13:36:41.147Z,23.75
2023-08-14T13:39:08.289Z,23.70
2023-08-14T13:41:34.790Z,23.71
2023-08-14T13:44:01.289Z,23.69
2023-08-14T13:46:27.718Z,23.67
2023-08-14T13:48:54.127Z,23.74
2023-08-14T13:51:20.756Z,23.73
2023-08-14T13:53:48.589Z,23.79
2023-08-14T13:56:15.102Z,23.71
2023-08-14T13:58:41.526Z,23.73
2023-08-14T14:01:08.384Z,23.72
2023-08-14T14:03:34.737Z,23.72
2023-08-14T14:06:01.125Z,23.72
2023-08-14T14:08:27.599Z,23.71
2023-08-14T14:10:53.974Z,23.69
2023-08-14T14:13:20.485Z,23.64
2023-08-14T14:15:47.022Z,23.70
2023-08-14T14:18:13.502Z,23.71
2023-08-14T14:20:40.048Z,23.77
2023-08-14T14:23:06.477Z,23.74
2023-08-14T14:25:32.877Z,23.77
2023-08-14T14:27:59.541Z,23.83
2023-08-14T14:30:25.909Z,23.84
2023-08-14T14:32:52.360Z,23.82
2023-08-14T14:35:19.198Z,23.92
2023-08-14T14:37:46.010Z,23.96
2023-08-14T14:40:12.496Z,23.98
2023-08-14T14:42:38.839Z,23.95
2023-08-14T14:45:06.532Z,24.04
2023-08-14T14:47:33.877Z,24.05
2023-08-14T14:50:00.343Z,24.05
2023-08-14T14:52:26.732Z,24.05
2023-08-14T14:54:53.312Z,24.11
2023-08-14T14:57:20.164Z,24.12
2023-08-14T14:59:48.052Z,24.06
2023-08-14T15:02:27.435Z,24.09
2023-08-14T15:04:54.463Z,24.06
2023-08-14T15:07:21.277Z,24.00
2023-08-14T15:09:47.915Z,23.98
2023-08-14T15:12:14.290Z,24.00
2023-08-14T15:14:40.702Z,23.92
2023-08-14T15:17:07.096Z,23.90
2023-08-14T15:19:33.442Z,23.81
2023-08-14T15:21:59.809Z,23.83
2023-08-14T15:24:26.183Z,23.82
2023-08-14T15:26:52.984Z,23.77
2023-08-14T15:29:19.521Z,23.72
2023-08-14T15:31:45.939Z,23.75
2023-08-14T15:34:12.341Z,23.74
2023-08-14T15:36:38.782Z,23.75
2023-08-14T15:39:05.197Z,23.68
2023-08-14T15:41:31.559Z,23.73
2023-08-14T15:43:58.123Z,23.72
2023-08-14T15:46:24.553Z,23.70
2023-08-14T15:48:53.807Z,23.67
2023-08-14T15:51:20.625Z,23.61
2023-08-14T15:53:47.089Z,23.63
2023-08-14T15:56:13.646Z,23.67
2023-08-14T15:58:40.027Z,23.69
2023-08-14T16:01:06.432Z,23.67
2023-08-14T16:03:32.911Z,23.76
2023-08-14T16:05:59.380Z,23.79
2023-08-14T16:08:25.760Z,23.90
2023-08-14T16:10:52.200Z,23.95
2023-08-14T16:13:18.573Z,24.03
2023-08-14T16:15:44.977Z,24.01
2023-08-14T16:18:11.503Z,24.00
2023-08-14T16:20:37.858Z,24.11
2023-08-14T16:23:04.554Z,24.11
2023-08-14T16:25:31.033Z,24.13
2023-08-14T16:27:57.438Z,24.11
2023-08-14T16:30:23.940Z,24.06
2023-08-14T16:32:50.367Z,24.09
2023-08-14T16:35:17.285Z,24.05
2023-08-14T16:37:43.833Z,24.08
2023-08-14T16:40:11.050Z,24.10
2023-08-14T16:42:37.626Z,24.01
2023-08-14T16:45:04.412Z,24.01
2023-08-14T16:47:30.783Z,24.03
2023-08-14T16:49:57.173Z,24.01
2023-08-14T16:52:23.577Z,24.04
2023-08-14T16:54:51.928Z,23.95
2023-08-14T16:59:44.682Z,23.99
2023-08-14T17:02:11.092Z,23.94
2023-08-14T17:04:37.557Z,23.92
2023-08-14T17:07:04.051Z,23.96
2023-08-14T17:09:30.713Z,23.92
2023-08-14T17:11:57.175Z,23.82
2023-08-14T17:14:23.762Z,23.92
2023-08-14T17:16:50.236Z,23.85
2023-08-14T17:19:18.531Z,23.88
2023-08-14T17:21:47.954Z,23.89
2023-08-14T17:24:15.922Z,23.87
2023-08-14T17:26:43.015Z,23.85
2023-08-14T17:29:09.705Z,23.81
2023-08-14T17:31:36.383Z,23.76
2023-08-14T17:34:02.891Z,23.77
2023-08-14T17:36:29.353Z,23.67
2023-08-14T17:38:55.768Z,23.70
2023-08-14T17:41:22.204Z,23.68
2023-08-14T17:43:48.592Z,23.64
2023-08-14T17:46:15.106Z,23.59
2023-08-14T17:48:41.496Z,23.55
2023-08-14T17:51:08.066Z,23.48
2023-08-14T17:53:35.254Z,23.40
2023-08-14T17:56:01.744Z,23.35
2023-08-14T17:58:28.184Z,23.35
2023-08-14T18:00:54.652Z,23.36
2023-08-14T18:03:21.188Z,23.33
2023-08-14T18:05:54.276Z,23.29
2023-08-14T18:08:21.282Z,23.24
2023-08-14T18:10:48.081Z,23.19
2023-08-14T18:13:14.785Z,23.16
2023-08-14T18:15:41.333Z,23.11
2023-08-14T18:18:07.815Z,23.04
2023-08-14T18:20:34.395Z,23.03
2023-08-14T18:23:01.296Z,22.98
2023-08-14T18:25:27.751Z,22.90
2023-08-14T18:27:54.161Z,22.83
2023-08-14T18:30:20.598Z,22.76
2023-08-14T18:32:47.008Z,22.71
2023-08-14T18:35:13.393Z,22.68
2023-08-14T18:37:39.887Z,22.63
2023-08-14T18:40:07.734Z,22.56
2023-08-14T18:42:35.340Z,22.48
2023-08-14T18:45:01.795Z,22.43
2023-08-14T18:47:28.227Z,22.38
2023-08-14T18:49:54.897Z,22.27
2023-08-14T18:52:21.775Z,22.24
2023-08-14T18:54:48.247Z,22.24
2023-08-14T18:57:14.614Z,22.14
2023-08-14T18:59:47.926Z,22.15
2023-08-14T19:02:14.861Z,22.14
2023-08-14T19:04:43.485Z,22.09
2023-08-14T19:07:10.832Z,21.99
2023-08-14T19:09:37.332Z,21.92
2023-08-14T19:12:07.174Z,21.87
2023-08-14T19:14:36.602Z,21.85
2023-08-14T19:17:04.128Z,21.73
2023-08-14T19:19:30.506Z,21.68
2023-08-14T19:21:56.921Z,21.67
2023-08-14T19:24:23.401Z,21.61
2023-08-14T19:26:50.178Z,21.60
2023-08-14T19:29:16.580Z,21.61
2023-08-14T19:31:42.904Z,21.55
2023-08-14T19:34:09.347Z,21.47
2023-08-14T19:36:35.740Z,21.45
2023-08-14T19:39:02.302Z,21.41
2023-08-14T19:41:28.750Z,21.34
2023-08-14T19:43:56.032Z,21.31
2023-08-14T19:46:22.612Z,21.26
2023-08-14T19:48:49.052Z,21.28
2023-08-14T19:51:15.444Z,21.23
2023-08-14T19:53:41.806Z,21.15
2023-08-14T19:56:08.935Z,21.08
2023-08-14T19:58:35.298Z,21.13
2023-08-14T20:01:02.375Z,21.08
2023-08-14T20:03:31.143Z,21.02
2023-08-14T20:05:57.675Z,21.02
2023-08-14T20:08:24.803Z,21.04
2023-08-14T20:10:51.485Z,20.97
2023-08-14T20:13:17.970Z,20.91
2023-08-14T20:15:45.777Z,20.98
2023-08-14T20:18:13.297Z,20.90
2023-08-14T20:20:41.271Z,20.87
2023-08-14T20:23:08.670Z,20.83
2023-08-14T20:25:35.804Z,20.77
2023-08-14T20:28:03.272Z,20.82
2023-08-14T20:30:30.359Z,20.81
2023-08-14T20:32:58.136Z,20.81
2023-08-14T20:35:24.637Z,20.79
2023-08-14T20:37:51.003Z,20.73
2023-08-14T20:40:17.678Z,20.68
2023-08-14T20:42:44.074Z,20.62
2023-08-14T20:45:10.677Z,20.62
2023-08-14T20:47:37.185Z,20.56
2023-08-14T20:50:03.639Z,20.57
2023-08-14T20:52:30.018Z,20.54
2023-08-14T20:54:56.520Z,20.52
2023-08-14T20:57:23.445Z,20.54
2023-08-14T20:59:49.804Z,20.54
2023-08-14T21:02:16.179Z,20.37
2023-08-14T21:04:42.648Z,20.43
2023-08-14T21:07:09.049Z,20.42
2023-08-14T21:09:35.453Z,20.39
2023-08-14T21:12:01.882Z,20.35
2023-08-14T21:14:28.341Z,20.33
2023-08-14T21:16:54.716Z,20.34
2023-08-14T21:19:21.068Z,20.30
2023-08-14T21:21:47.449Z,20.32
2023-08-14T21:24:13.942Z,20.29
2023-08-14T21:26:41.247Z,20.28
2023-08-14T21:29:07.603Z,20.26
2023-08-14T21:31:34.344Z,20.21
2023-08-14T21:34:01.006Z,20.26
2023-08-14T21:36:27.446Z,20.27
2023-08-14T21:38:53.877Z,20.26
2023-08-14T21:41:20.323Z,20.25
2023-08-14T21:43:46.749Z,20.28
2023-08-14T21:46:13.157Z,20.34
2023-08-14T21:48:39.537Z,20.35
2023-08-14T21:51:06.143Z,20.30
2023-08-14T21:53:32.872Z,20.39
2023-08-14T21:55:59.241Z,20.35
2023-08-14T21:58:25.639Z,20.32
2023-08-14T22:00:52.215Z,20.29
2023-08-14T22:03:18.647Z,20.28
2023-08-14T22:05:45.005Z,20.21
2023-08-14T22:08:11.396Z,20.21
2023-08-14T22:10:37.767Z,20.21
2023-08-14T22:13:04.339Z,20.11
2023-08-14T22:18:03.120Z,20.09
2023-08-14T22:20:29.549Z,20.15
2023-08-14T22:22:55.970Z,20.16
2023-08-14T22:25:22.911Z,20.19
2023-08-14T22:27:49.443Z,20.11
2023-08-14T22:30:15.882Z,20.16
2023-08-14T22:32:42.331Z,20.10
2023-08-14T22:35:08.917Z,20.13
2023-08-14T22:37:35.343Z,20.13
2023-08-14T22:40:01.799Z,20.09
2023-08-14T22:42:28.207Z,20.11
2023-08-14T22:44:54.600Z,20.04
2023-08-14T22:47:21.046Z,20.03
2023-08-14T22:49:47.574Z,20.02
2023-08-14T22:52:13.982Z,20.01
2023-08-14T22:54:40.344Z,19.87
2023-08-14T22:57:06.714Z,19.98
2023-08-14T22:59:33.092Z,19.96
2023-08-14T23:01:59.456Z,19.93
2023-08-14T23:04:25.902Z,19.88
2023-08-14T23:06:52.941Z,19.83
2023-08-14T23:09:19.388Z,19.88
2023-08-14T23:11:45.939Z,19.86
2023-08-14T23:14:15.547Z,19.74
2023-08-14T23:16:41.976Z,19.82
2023-08-14T23:19:08.652Z,19.80
2023-08-14T23:21:35.079Z,19.80
2023-08-14T23:24:01.469Z,19.73
2023-08-14T23:26:27.909Z,19.70
2023-08-14T23:28:54.419Z,19.63
2023-08-14T23:31:21.590Z,19.65
2023-08-14T23:33:48.034Z,19.66
2023-08-14T23:36:14.374Z,19.64
2023-08-14T23:38:40.770Z,19.60
2023-08-14T23:41:07.165Z,19.50
2023-08-14T23:43:33.566Z,19.47
2023-08-14T23:46:00.803Z,19.61
2023-08-14T23:48:27.286Z,19.60
2023-08-14T23:50:53.641Z,19.44
2023-08-14T23:53:20.005Z,19.52
2023-08-14T23:55:46.722Z,19.53
2023-08-14T23:58:13.397Z,19.36
